Weather at Elisuperficie di emergenza

Public forecast

Using degrees Celsius for public forecast. Weather courtesy of forecast.io.

Closest aviation weather report (METAR) to Elisuperficie di emergenza

Closest report is Bari Karol Wojtyła Airport, 15.6 nm (28.9 km) NNE. Retrieved 2021/10/16 02:20 UTC (21 minutes ago):

LIBD 160220Z 27008KT CAVOK 13/07 Q1011

Closest aviation forecast (TAF) to Elisuperficie di emergenza

Closest forecast is Bari Karol Wojtyła Airport, 15.6 nm (28.9 km) NNE. Retrieved 2021-10-16 00:00 UTC (3 hours ago):

TAF LIBD 152300Z 1600/1624 28009KT 9999 SCT040 BECMG 1608/1610 35014KT BECMG 1616/1618 28008KT